createdAt,value
2023-01-28T00:12:12.390Z,-0.70
2023-01-28T00:15:29.484Z,-0.70
2023-01-28T00:20:12.602Z,-0.80
2023-01-28T00:37:21.402Z,-0.70
2023-01-28T00:43:30.564Z,-0.70
2023-01-28T00:53:01.611Z,-0.70
2023-01-28T00:56:53.081Z,-0.70
2023-01-28T01:00:41.870Z,-0.70
2023-01-28T01:23:54.647Z,-0.70
2023-01-28T01:32:30.564Z,-0.70
2023-01-28T01:42:36.085Z,-0.70
2023-01-28T01:49:38.919Z,-0.70
2023-01-28T01:53:27.471Z,-0.80
2023-01-28T02:19:25.918Z,-0.80
2023-01-28T02:30:23.161Z,-0.70
2023-01-28T02:37:42.726Z,-0.80
2023-01-28T02:49:04.713Z,-0.80
2023-01-28T03:17:07.029Z,-0.90
2023-01-28T03:32:00.629Z,-0.90
2023-01-28T03:59:25.295Z,-1.00
2023-01-28T04:06:07.457Z,-1.00
2023-01-28T04:16:18.489Z,-1.00
2023-01-28T04:19:57.070Z,-0.90
2023-01-28T04:38:26.062Z,-1.00
2023-01-28T04:42:16.543Z,-1.00
2023-01-28T04:48:44.075Z,-0.90
2023-01-28T04:52:26.203Z,-0.90
2023-01-28T05:05:09.805Z,-0.90
2023-01-28T05:22:31.740Z,-0.90
2023-01-28T05:39:19.653Z,-1.00
2023-01-28T05:55:20.715Z,-0.90
2023-01-28T06:02:42.805Z,-0.80
2023-01-28T06:12:31.089Z,-0.90
2023-01-28T06:15:18.092Z,-0.90
2023-01-28T06:22:12.084Z,-1.00
2023-01-28T06:32:23.513Z,-1.00
2023-01-28T06:52:32.746Z,-1.00
2023-01-28T06:55:38.778Z,-1.00
2023-01-28T07:06:04.692Z,-0.90
2023-01-28T07:15:52.459Z,-0.90
2023-01-28T07:26:02.731Z,-0.80
2023-01-28T07:32:30.192Z,-0.70
2023-01-28T07:42:27.611Z,-0.70
2023-01-28T07:52:57.413Z,-0.60
2023-01-28T07:59:08.152Z,-0.50
2023-01-28T08:09:37.064Z,-0.50
2023-01-28T08:19:14.702Z,-0.60
2023-01-28T08:25:03.192Z,-0.40
2023-01-28T08:42:07.710Z,-0.20
2023-01-28T08:44:54.146Z,-0.20
2023-01-28T08:53:34.551Z,-0.20
2023-01-28T08:56:02.929Z,-0.10
2023-01-28T08:58:29.981Z,-0.10
2023-01-28T09:00:59.424Z,-0.10
2023-01-28T09:03:26.346Z,-0.10
2023-01-28T09:05:53.085Z,0.00
2023-01-28T09:08:26.627Z,-0.10
2023-01-28T09:11:26.843Z,0.00
2023-01-28T09:17:44.798Z,0.00
2023-01-28T09:20:32.606Z,0.00
2023-01-28T09:23:44.442Z,0.10
2023-01-28T09:26:41.269Z,0.10
2023-01-28T09:32:31.861Z,0.00
2023-01-28T09:35:13.947Z,0.00
2023-01-28T09:38:10.370Z,0.00
2023-01-28T09:40:55.975Z,0.00
2023-01-28T09:43:55.289Z,0.00
2023-01-28T09:46:27.145Z,0.00
2023-01-28T09:49:41.099Z,0.00
2023-01-28T09:52:53.696Z,0.00
2023-01-28T09:55:52.373Z,0.00
2023-01-28T09:58:27.682Z,0.10
2023-01-28T10:01:34.170Z,0.00
2023-01-28T10:04:25.199Z,0.00
2023-01-28T10:07:37.206Z,0.10
2023-01-28T10:10:42.266Z,0.10
2023-01-28T10:17:47.116Z,0.20
2023-01-28T10:25:43.621Z,0.30
2023-01-28T10:29:40.288Z,0.40
2023-01-28T10:33:14.896Z,0.30
2023-01-28T10:48:41.392Z,0.40
2023-01-28T12:14:24.587Z,0.60
2023-01-28T12:17:37.092Z,0.60
2023-01-28T12:20:06.884Z,0.60
2023-01-28T12:22:58.109Z,0.70
2023-01-28T12:25:43.600Z,0.70
2023-01-28T12:28:13.158Z,0.70
2023-01-28T12:30:48.086Z,0.60
2023-01-28T12:33:42.482Z,0.70
2023-01-28T12:36:32.543Z,0.60
2023-01-28T12:39:10.850Z,0.70
2023-01-28T12:41:52.876Z,0.60
2023-01-28T12:44:34.678Z,0.60
2023-01-28T12:47:19.715Z,0.70
2023-01-28T12:50:34.538Z,0.60
2023-01-28T12:53:56.261Z,0.70
2023-01-28T12:57:15.578Z,0.60
2023-01-28T13:00:24.430Z,0.60
2023-01-28T13:03:31.634Z,0.60
2023-01-28T13:06:26.970Z,0.60
2023-01-28T13:09:13.884Z,0.60
2023-01-28T13:11:41.660Z,0.70
2023-01-28T13:14:12.692Z,0.60
2023-01-28T13:16:39.853Z,0.60
2023-01-28T13:19:20.147Z,0.60
2023-01-28T13:21:50.026Z,0.50
2023-01-28T13:24:19.402Z,0.50
2023-01-28T13:26:52.522Z,0.60
2023-01-28T13:29:29.929Z,0.50
2023-01-28T13:32:00.424Z,0.50
2023-01-28T13:34:40.713Z,0.50
2023-01-28T13:37:34.548Z,0.50
2023-01-28T13:40:13.592Z,0.50
2023-01-28T13:42:41.208Z,0.50
2023-01-28T13:45:17.268Z,0.50
2023-01-28T13:47:51.432Z,0.50
2023-01-28T13:50:32.387Z,0.50
2023-01-28T13:53:12.227Z,0.50
2023-01-28T13:55:46.026Z,0.50
2023-01-28T13:58:41.696Z,0.50
2023-01-28T14:01:34.753Z,0.50
2023-01-28T14:04:13.411Z,0.50
2023-01-28T14:06:58.769Z,0.50
2023-01-28T14:09:36.292Z,0.50
2023-01-28T14:12:09.940Z,0.50
2023-01-28T14:14:45.688Z,0.50
2023-01-28T14:17:46.350Z,0.50
2023-01-28T14:20:44.853Z,0.50
2023-01-28T14:23:22.052Z,0.50
2023-01-28T14:25:51.609Z,0.50
2023-01-28T14:28:38.120Z,0.50
2023-01-28T14:31:12.073Z,0.40
2023-01-28T14:33:40.734Z,0.40
2023-01-28T14:36:11.771Z,0.50
2023-01-28T14:38:43.289Z,0.40
2023-01-28T14:41:19.415Z,0.40
2023-01-28T14:43:46.146Z,0.40
2023-01-28T14:46:51.565Z,0.50
2023-01-28T14:49:33.979Z,0.50
2023-01-28T14:52:29.214Z,0.40
2023-01-28T14:55:20.375Z,0.40
2023-01-28T14:57:54.076Z,0.50
2023-01-28T15:00:36.690Z,0.50
2023-01-28T15:03:26.607Z,0.40
2023-01-28T15:06:15.479Z,0.40
2023-01-28T15:08:42.447Z,0.50
2023-01-28T15:11:17.863Z,0.40
2023-01-28T15:13:48.169Z,0.50
2023-01-28T15:16:21.995Z,0.50
2023-01-28T15:18:51.205Z,0.50
2023-01-28T15:21:26.901Z,0.50
2023-01-28T15:24:03.232Z,0.50
2023-01-28T15:26:33.499Z,0.50
2023-01-28T15:29:00.497Z,0.40
2023-01-28T15:31:31.137Z,0.50
2023-01-28T15:34:02.253Z,0.50
2023-01-28T15:36:29.775Z,0.50
2023-01-28T15:38:57.623Z,0.40
2023-01-28T15:41:41.276Z,0.50
2023-01-28T15:44:29.190Z,0.50
2023-01-28T15:47:00.458Z,0.40
2023-01-28T15:49:43.774Z,0.50
2023-01-28T15:52:15.400Z,0.40
2023-01-28T15:54:45.356Z,0.40
2023-01-28T15:57:27.362Z,0.40
2023-01-28T16:00:18.339Z,0.40
2023-01-28T16:02:47.190Z,0.40
2023-01-28T16:05:26.225Z,0.40
2023-01-28T16:07:53.607Z,0.40
2023-01-28T16:10:25.132Z,0.40
2023-01-28T16:13:04.698Z,0.40
2023-01-28T16:15:32.647Z,0.40
2023-01-28T16:18:01.717Z,0.40
2023-01-28T16:20:30.141Z,0.40
2023-01-28T16:23:02.670Z,0.40
2023-01-28T16:25:32.870Z,0.40
2023-01-28T16:28:01.621Z,0.40
2023-01-28T16:30:29.341Z,0.50
2023-01-28T16:32:56.800Z,0.40
2023-01-28T16:35:46.932Z,0.40
2023-01-28T16:38:21.249Z,0.40
2023-01-28T16:40:47.955Z,0.40
2023-01-28T16:43:23.214Z,0.40
2023-01-28T16:45:52.376Z,0.40
2023-01-28T16:48:21.464Z,0.40
2023-01-28T16:50:50.871Z,0.40
2023-01-28T16:53:33.722Z,0.40
2023-01-28T16:56:01.023Z,0.30
2023-01-28T17:04:51.350Z,0.30
2023-01-28T17:07:25.032Z,0.30
2023-01-28T17:10:32.121Z,0.30
2023-01-28T17:13:27.899Z,0.30
2023-01-28T17:16:02.823Z,0.30
2023-01-28T17:18:33.042Z,0.30
2023-01-28T17:21:08.888Z,0.30
2023-01-28T17:23:39.189Z,0.30
2023-01-28T17:26:29.452Z,0.30
2023-01-28T17:28:59.619Z,0.30
2023-01-28T17:31:29.987Z,0.30
2023-01-28T17:33:58.346Z,0.30
2023-01-28T17:36:27.271Z,0.30
2023-01-28T17:38:54.383Z,0.30
2023-01-28T17:41:21.664Z,0.30
2023-01-28T17:43:53.156Z,0.30
2023-01-28T17:46:29.073Z,0.30
2023-01-28T17:48:55.889Z,0.30
2023-01-28T17:51:25.496Z,0.30
2023-01-28T17:53:53.354Z,0.30
2023-01-28T17:56:26.202Z,0.30
2023-01-28T17:58:58.688Z,0.30
2023-01-28T18:01:28.081Z,0.30
2023-01-28T18:04:05.275Z,0.30
2023-01-28T18:09:58.481Z,0.40
2023-01-28T18:12:30.783Z,0.30
2023-01-28T18:15:25.941Z,0.30
2023-01-28T18:17:55.798Z,0.30
2023-01-28T18:21:20.304Z,0.30
2023-01-28T18:23:46.508Z,0.30
2023-01-28T18:26:24.907Z,0.30
2023-01-28T18:29:06.255Z,0.30
2023-01-28T18:31:51.835Z,0.30
2023-01-28T18:40:34.667Z,0.30
2023-01-28T18:43:05.951Z,0.30
2023-01-28T18:45:34.336Z,0.30
2023-01-28T18:48:05.753Z,0.20
2023-01-28T18:54:02.524Z,0.30
2023-01-28T18:56:30.703Z,0.20
2023-01-28T18:58:59.226Z,0.20
2023-01-28T19:01:28.003Z,0.20
2023-01-28T19:04:00.154Z,0.30
2023-01-28T19:06:29.453Z,0.20
2023-01-28T19:08:59.500Z,0.20
2023-01-28T19:11:28.056Z,0.20
2023-01-28T19:14:04.372Z,0.20
2023-01-28T19:16:31.801Z,0.20
2023-01-28T19:19:02.838Z,0.20
2023-01-28T19:21:31.444Z,0.30
2023-01-28T19:24:09.273Z,0.20
2023-01-28T19:26:37.076Z,0.30
2023-01-28T19:29:07.179Z,0.20
2023-01-28T19:31:34.111Z,0.20
2023-01-28T19:34:02.824Z,0.20
2023-01-28T19:36:33.429Z,0.30
2023-01-28T19:39:05.508Z,0.30
2023-01-28T19:41:37.102Z,0.30
2023-01-28T19:44:10.791Z,0.20
2023-01-28T19:46:40.499Z,0.20
2023-01-28T19:49:09.485Z,0.20
2023-01-28T19:51:39.495Z,0.20
2023-01-28T19:54:06.713Z,0.20
2023-01-28T19:56:37.458Z,0.30
2023-01-28T19:59:04.606Z,0.30
2023-01-28T20:01:31.540Z,0.30
2023-01-28T20:04:04.496Z,0.30
2023-01-28T20:06:39.882Z,0.20
2023-01-28T20:09:15.222Z,0.20
2023-01-28T20:11:42.227Z,0.20
2023-01-28T20:14:09.181Z,0.30
2023-01-28T20:16:36.784Z,0.20
2023-01-28T20:19:19.311Z,0.20
2023-01-28T20:21:50.764Z,0.20
2023-01-28T20:24:20.264Z,0.10
2023-01-28T20:26:47.186Z,0.10
2023-01-28T20:29:20.209Z,0.20
2023-01-28T20:31:57.610Z,0.10
2023-01-28T20:34:36.129Z,0.10
2023-01-28T20:37:03.927Z,0.10
2023-01-28T20:39:31.127Z,0.20
2023-01-28T21:23:02.431Z,-0.10
2023-01-28T21:25:58.545Z,-0.10
2023-01-28T21:28:52.729Z,-0.10
2023-01-28T21:31:29.487Z,-0.10
2023-01-28T21:34:06.259Z,-0.20
2023-01-28T21:36:47.320Z,-0.20
2023-01-28T21:39:18.279Z,-0.20
2023-01-28T21:41:45.891Z,-0.20
2023-01-28T21:44:14.328Z,-0.20
2023-01-28T21:46:41.172Z,-0.20
2023-01-28T21:49:10.804Z,-0.20
2023-01-28T21:51:49.595Z,-0.20
2023-01-28T21:54:21.429Z,-0.20
2023-01-28T21:56:57.684Z,-0.20
2023-01-28T21:59:35.523Z,-0.10
2023-01-28T22:02:14.265Z,-0.20
2023-01-28T22:04:46.198Z,-0.20
2023-01-28T22:07:17.328Z,-0.20
2023-01-28T22:09:45.689Z,-0.20
2023-01-28T22:12:15.882Z,-0.30
2023-01-28T22:14:44.107Z,-0.30
2023-01-28T22:17:15.386Z,-0.30
2023-01-28T22:19:51.057Z,-0.20
2023-01-28T22:22:20.308Z,-0.20
2023-01-28T22:24:47.358Z,-0.20
2023-01-28T22:27:19.627Z,-0.20
2023-01-28T22:29:46.622Z,-0.20
2023-01-28T22:32:21.281Z,-0.20
2023-01-28T22:34:53.487Z,-0.30
2023-01-28T22:37:21.806Z,-0.30
2023-01-28T22:39:49.132Z,-0.30
2023-01-28T22:42:17.384Z,-0.30
2023-01-28T22:45:03.772Z,-0.30
2023-01-28T22:47:34.763Z,-0.30
2023-01-28T22:50:17.684Z,-0.20
2023-01-28T22:52:52.657Z,-0.30
2023-01-28T22:55:20.970Z,-0.30
2023-01-28T22:58:19.662Z,-0.30
2023-01-28T23:01:07.660Z,-0.30
2023-01-28T23:03:43.842Z,-0.40
2023-01-28T23:06:10.693Z,-0.40
2023-01-28T23:08:39.965Z,-0.50
2023-01-28T23:11:15.482Z,-0.40
2023-01-28T23:14:03.920Z,-0.40
2023-01-28T23:26:57.932Z,-0.40
2023-01-28T23:29:31.625Z,-0.40
2023-01-28T23:32:04.921Z,-0.40
2023-01-28T23:34:35.156Z,-0.40
2023-01-28T23:37:03.436Z,-0.40
2023-01-28T23:39:30.649Z,-0.40
2023-01-28T23:41:59.749Z,-0.30
2023-01-28T23:44:28.213Z,-0.40
2023-01-28T23:46:56.954Z,-0.30
2023-01-28T23:49:29.363Z,-0.30
2023-01-28T23:52:29.501Z,-0.30
2023-01-28T23:55:28.423Z,-0.40
